Avonmore, Pennsylvania
Current Conditions -  °F | °C
As of 8:45 PM on Thursday 20 Nov 2014 (Local Time) from KLBE Reporting Station
Clear Clear  
Wind Chill: 13°   Ceiling: Unl
Heat Index: 25°   Visibility: 10mi
Dew Point: 10°   Wind: 13mph
Humidity: 54%   Direction: 230°SW
Pressure: 30.1"   Gusts: NA
Location:  40.53°N, 79.46°W
Report Text: KLBE 210145Z 23011KT 10SM SKC M04/M12 A3010
Loading
Personal Weather Stations






























Interactive Weather Map New forecast layout! Learn more

10-Day Weather Forecast

Advertisements
Track Severe Weather on mobile